sensor_id;sensor_type;location;lat;lon;timestamp;temperature;humidity
25214;DHT22;13160;51.834;4.706;2022-08-04T00:01:32;23.80;97.30
25214;DHT22;13160;51.834;4.706;2022-08-04T00:04:11;23.80;97.50
25214;DHT22;13160;51.834;4.706;2022-08-04T00:06:54;23.80;97.50
25214;DHT22;13160;51.834;4.706;2022-08-04T00:12:16;23.70;97.80
25214;DHT22;13160;51.834;4.706;2022-08-04T00:14:49;23.60;97.90
25214;DHT22;13160;51.834;4.706;2022-08-04T00:17:20;23.70;97.80
25214;DHT22;13160;51.834;4.706;2022-08-04T00:19:56;23.60;97.90
25214;DHT22;13160;51.834;4.706;2022-08-04T00:22:30;23.60;98.00
25214;DHT22;13160;51.834;4.706;2022-08-04T00:25:02;23.60;98.10
25214;DHT22;13160;51.834;4.706;2022-08-04T00:27:31;23.60;98.20
25214;DHT22;13160;51.834;4.706;2022-08-04T00:30:02;23.50;98.40
25214;DHT22;13160;51.834;4.706;2022-08-04T00:32:32;23.50;98.60
25214;DHT22;13160;51.834;4.706;2022-08-04T00:35:01;23.50;98.70
25214;DHT22;13160;51.834;4.706;2022-08-04T00:37:32;23.50;98.80
25214;DHT22;13160;51.834;4.706;2022-08-04T00:40:02;23.40;98.90
25214;DHT22;13160;51.834;4.706;2022-08-04T00:42:43;23.40;99.00
25214;DHT22;13160;51.834;4.706;2022-08-04T00:45:43;23.40;99.10
25214;DHT22;13160;51.834;4.706;2022-08-04T00:49:04;23.40;99.00
25214;DHT22;13160;51.834;4.706;2022-08-04T00:52:01;23.30;99.20
25214;DHT22;13160;51.834;4.706;2022-08-04T00:55:04;23.30;99.40
25214;DHT22;13160;51.834;4.706;2022-08-04T00:57:49;23.30;99.40
25214;DHT22;13160;51.834;4.706;2022-08-04T01:00:23;23.20;99.50
25214;DHT22;13160;51.834;4.706;2022-08-04T01:03:05;23.20;99.90
25214;DHT22;13160;51.834;4.706;2022-08-04T01:05:44;23.20;99.60
25214;DHT22;13160;51.834;4.706;2022-08-04T01:11:30;23.20;99.70
25214;DHT22;13160;51.834;4.706;2022-08-04T01:14:43;23.10;99.70
25214;DHT22;13160;51.834;4.706;2022-08-04T01:17:20;23.00;99.70
25214;DHT22;13160;51.834;4.706;2022-08-04T01:19:59;23.00;99.90
25214;DHT22;13160;51.834;4.706;2022-08-04T01:26:26;23.00;99.90
25214;DHT22;13160;51.834;4.706;2022-08-04T01:29:30;22.90;99.90
25214;DHT22;13160;51.834;4.706;2022-08-04T01:32:19;22.90;99.90
25214;DHT22;13160;51.834;4.706;2022-08-04T01:34:55;22.90;99.90
25214;DHT22;13160;51.834;4.706;2022-08-04T01:37:47;22.80;99.90
25214;DHT22;13160;51.834;4.706;2022-08-04T01:40:16;22.90;99.90
25214;DHT22;13160;51.834;4.706;2022-08-04T01:42:46;22.80;99.90
25214;DHT22;13160;51.834;4.706;2022-08-04T01:45:18;22.80;99.90
25214;DHT22;13160;51.834;4.706;2022-08-04T01:47:49;22.80;99.90
25214;DHT22;13160;51.834;4.706;2022-08-04T01:50:19;22.80;99.90
25214;DHT22;13160;51.834;4.706;2022-08-04T01:52:52;22.80;99.90
25214;DHT22;13160;51.834;4.706;2022-08-04T01:55:20;22.80;99.90
25214;DHT22;13160;51.834;4.706;2022-08-04T01:58:10;22.70;99.90
25214;DHT22;13160;51.834;4.706;2022-08-04T02:00:48;22.70;99.90
25214;DHT22;13160;51.834;4.706;2022-08-04T02:03:22;22.70;99.90
25214;DHT22;13160;51.834;4.706;2022-08-04T02:06:20;22.70;99.90
25214;DHT22;13160;51.834;4.706;2022-08-04T02:09:03;22.70;99.90
25214;DHT22;13160;51.834;4.706;2022-08-04T02:11:40;22.70;99.90
25214;DHT22;13160;51.834;4.706;2022-08-04T02:14:24;22.70;99.90
25214;DHT22;13160;51.834;4.706;2022-08-04T02:17:11;22.70;99.90
25214;DHT22;13160;51.834;4.706;2022-08-04T02:19:52;22.60;99.90
25214;DHT22;13160;51.834;4.706;2022-08-04T02:22:27;22.60;99.90
25214;DHT22;13160;51.834;4.706;2022-08-04T02:25:05;22.60;99.90
25214;DHT22;13160;51.834;4.706;2022-08-04T02:27:54;22.60;99.90
25214;DHT22;13160;51.834;4.706;2022-08-04T02:30:31;22.50;99.90
25214;DHT22;13160;51.834;4.706;2022-08-04T02:33:06;22.60;99.90
25214;DHT22;13160;51.834;4.706;2022-08-04T02:35:37;22.60;99.90
25214;DHT22;13160;51.834;4.706;2022-08-04T02:38:26;22.50;99.90
25214;DHT22;13160;51.834;4.706;2022-08-04T02:41:03;22.50;99.90
25214;DHT22;13160;51.834;4.706;2022-08-04T02:43:35;22.50;99.90
25214;DHT22;13160;51.834;4.706;2022-08-04T02:46:19;22.50;99.90
25214;DHT22;13160;51.834;4.706;2022-08-04T02:48:51;22.50;99.90
25214;DHT22;13160;51.834;4.706;2022-08-04T02:51:31;22.50;99.90
25214;DHT22;13160;51.834;4.706;2022-08-04T02:54:03;22.50;99.90
25214;DHT22;13160;51.834;4.706;2022-08-04T02:56:35;22.50;99.90
25214;DHT22;13160;51.834;4.706;2022-08-04T02:59:06;22.50;99.90
25214;DHT22;13160;51.834;4.706;2022-08-04T03:01:36;22.50;99.90
25214;DHT22;13160;51.834;4.706;2022-08-04T03:04:44;22.60;99.90
25214;DHT22;13160;51.834;4.706;2022-08-04T03:08:01;22.60;99.90
25214;DHT22;13160;51.834;4.706;2022-08-04T03:11:06;22.60;99.90
25214;DHT22;13160;51.834;4.706;2022-08-04T03:14:10;22.50;99.90
25214;DHT22;13160;51.834;4.706;2022-08-04T03:17:24;22.60;99.90
25214;DHT22;13160;51.834;4.706;2022-08-04T03:20:28;22.50;99.90
25214;DHT22;13160;51.834;4.706;2022-08-04T03:23:25;22.50;99.90
25214;DHT22;13160;51.834;4.706;2022-08-04T03:29:44;22.50;99.90
25214;DHT22;13160;51.834;4.706;2022-08-04T03:39:59;22.50;99.90
25214;DHT22;13160;51.834;4.706;2022-08-04T03:49:42;22.50;99.90
25214;DHT22;13160;51.834;4.706;2022-08-04T03:52:42;22.50;99.90
25214;DHT22;13160;51.834;4.706;2022-08-04T03:56:04;22.40;99.90
25214;DHT22;13160;51.834;4.706;2022-08-04T03:59:23;22.50;99.90
25214;DHT22;13160;51.834;4.706;2022-08-04T04:02:16;22.40;99.90
25214;DHT22;13160;51.834;4.706;2022-08-04T04:05:03;22.40;99.90
25214;DHT22;13160;51.834;4.706;2022-08-04T04:08:02;22.40;99.90
25214;DHT22;13160;51.834;4.706;2022-08-04T04:14:17;22.50;99.90
25214;DHT22;13160;51.834;4.706;2022-08-04T04:17:08;22.50;99.90
25214;DHT22;13160;51.834;4.706;2022-08-04T04:20:19;22.40;99.90
25214;DHT22;13160;51.834;4.706;2022-08-04T04:22:59;22.50;99.90
25214;DHT22;13160;51.834;4.706;2022-08-04T04:25:48;22.40;99.90
25214;DHT22;13160;51.834;4.706;2022-08-04T04:28:54;22.40;99.90
25214;DHT22;13160;51.834;4.706;2022-08-04T04:31:40;22.40;99.90
25214;DHT22;13160;51.834;4.706;2022-08-04T04:34:25;22.40;99.90
25214;DHT22;13160;51.834;4.706;2022-08-04T04:37:17;22.40;99.90
25214;DHT22;13160;51.834;4.706;2022-08-04T04:40:02;22.40;99.90
25214;DHT22;13160;51.834;4.706;2022-08-04T04:42:57;22.40;99.90
25214;DHT22;13160;51.834;4.706;2022-08-04T04:45:52;22.40;99.90
25214;DHT22;13160;51.834;4.706;2022-08-04T04:48:32;22.40;99.90
25214;DHT22;13160;51.834;4.706;2022-08-04T04:51:09;22.40;99.90
25214;DHT22;13160;51.834;4.706;2022-08-04T04:53:50;22.40;99.90
25214;DHT22;13160;51.834;4.706;2022-08-04T04:56:36;22.40;99.90
25214;DHT22;13160;51.834;4.706;2022-08-04T04:59:12;22.50;99.90
25214;DHT22;13160;51.834;4.706;2022-08-04T05:02:12;22.50;99.90
25214;DHT22;13160;51.834;4.706;2022-08-04T05:08:42;22.50;99.90
25214;DHT22;13160;51.834;4.706;2022-08-04T05:12:04;22.50;99.90
25214;DHT22;13160;51.834;4.706;2022-08-04T05:15:04;22.50;99.90
25214;DHT22;13160;51.834;4.706;2022-08-04T05:17:37;22.60;99.90
25214;DHT22;13160;51.834;4.706;2022-08-04T05:20:11;22.60;99.90
25214;DHT22;13160;51.834;4.706;2022-08-04T05:22:47;22.60;99.90
25214;DHT22;13160;51.834;4.706;2022-08-04T05:25:23;22.70;99.90
25214;DHT22;13160;51.834;4.706;2022-08-04T05:28:01;22.70;99.90
25214;DHT22;13160;51.834;4.706;2022-08-04T05:30:34;22.70;99.90
25214;DHT22;13160;51.834;4.706;2022-08-04T05:33:14;22.70;99.90
25214;DHT22;13160;51.834;4.706;2022-08-04T05:35:48;22.80;99.90
25214;DHT22;13160;51.834;4.706;2022-08-04T05:38:40;22.80;99.90
25214;DHT22;13160;51.834;4.706;2022-08-04T05:41:10;22.80;99.90
25214;DHT22;13160;51.834;4.706;2022-08-04T05:43:42;22.80;99.90
25214;DHT22;13160;51.834;4.706;2022-08-04T05:46:11;22.90;99.90
25214;DHT22;13160;51.834;4.706;2022-08-04T05:48:41;22.90;99.90
25214;DHT22;13160;51.834;4.706;2022-08-04T05:51:11;22.90;99.90
25214;DHT22;13160;51.834;4.706;2022-08-04T05:53:42;22.90;99.90
25214;DHT22;13160;51.834;4.706;2022-08-04T05:56:13;22.90;99.90
25214;DHT22;13160;51.834;4.706;2022-08-04T05:58:45;22.90;99.90
25214;DHT22;13160;51.834;4.706;2022-08-04T06:01:16;23.00;99.90
25214;DHT22;13160;51.834;4.706;2022-08-04T06:03:46;23.00;99.90
25214;DHT22;13160;51.834;4.706;2022-08-04T06:06:17;23.00;99.90
25214;DHT22;13160;51.834;4.706;2022-08-04T06:08:46;23.10;99.90
25214;DHT22;13160;51.834;4.706;2022-08-04T06:11:15;23.10;99.90
25214;DHT22;13160;51.834;4.706;2022-08-04T06:13:50;23.10;99.90
25214;DHT22;13160;51.834;4.706;2022-08-04T06:16:23;23.20;99.90
25214;DHT22;13160;51.834;4.706;2022-08-04T06:18:59;23.20;99.90
25214;DHT22;13160;51.834;4.706;2022-08-04T06:21:50;23.20;99.90
25214;DHT22;13160;51.834;4.706;2022-08-04T06:24:25;23.20;99.90
25214;DHT22;13160;51.834;4.706;2022-08-04T06:26:55;23.20;99.90
25214;DHT22;13160;51.834;4.706;2022-08-04T06:29:26;23.30;99.90
25214;DHT22;13160;51.834;4.706;2022-08-04T06:32:02;23.30;99.90
25214;DHT22;13160;51.834;4.706;2022-08-04T06:34:59;23.30;99.90
25214;DHT22;13160;51.834;4.706;2022-08-04T06:37:29;23.30;99.90
25214;DHT22;13160;51.834;4.706;2022-08-04T06:40:10;23.40;99.90
25214;DHT22;13160;51.834;4.706;2022-08-04T06:42:59;23.40;99.90
25214;DHT22;13160;51.834;4.706;2022-08-04T06:45:32;23.50;99.90
25214;DHT22;13160;51.834;4.706;2022-08-04T06:48:02;23.60;99.90
25214;DHT22;13160;51.834;4.706;2022-08-04T06:50:34;23.60;99.90
25214;DHT22;13160;51.834;4.706;2022-08-04T06:53:23;23.70;99.90
25214;DHT22;13160;51.834;4.706;2022-08-04T06:55:52;23.80;99.90
25214;DHT22;13160;51.834;4.706;2022-08-04T06:58:22;23.80;99.90
25214;DHT22;13160;51.834;4.706;2022-08-04T07:00:53;24.00;99.90
25214;DHT22;13160;51.834;4.706;2022-08-04T07:03:28;24.20;99.90
25214;DHT22;13160;51.834;4.706;2022-08-04T07:05:56;24.60;99.90
25214;DHT22;13160;51.834;4.706;2022-08-04T07:08:32;24.90;99.90
25214;DHT22;13160;51.834;4.706;2022-08-04T07:11:03;25.20;99.60
25214;DHT22;13160;51.834;4.706;2022-08-04T07:13:32;25.50;99.10
25214;DHT22;13160;51.834;4.706;2022-08-04T07:16:04;25.60;98.40
25214;DHT22;13160;51.834;4.706;2022-08-04T07:18:32;25.70;97.80
25214;DHT22;13160;51.834;4.706;2022-08-04T07:21:00;25.90;97.70
25214;DHT22;13160;51.834;4.706;2022-08-04T07:23:29;26.00;97.50
25214;DHT22;13160;51.834;4.706;2022-08-04T07:25:58;26.30;97.10
25214;DHT22;13160;51.834;4.706;2022-08-04T07:28:39;26.50;96.40
25214;DHT22;13160;51.834;4.706;2022-08-04T07:31:15;26.70;95.70
25214;DHT22;13160;51.834;4.706;2022-08-04T07:34:02;26.80;95.20
25214;DHT22;13160;51.834;4.706;2022-08-04T07:36:48;26.90;94.90
25214;DHT22;13160;51.834;4.706;2022-08-04T07:39:22;27.00;94.60
25214;DHT22;13160;51.834;4.706;2022-08-04T07:41:56;27.30;94.20
25214;DHT22;13160;51.834;4.706;2022-08-04T07:44:28;27.40;93.80
25214;DHT22;13160;51.834;4.706;2022-08-04T07:46:59;27.50;93.40
25214;DHT22;13160;51.834;4.706;2022-08-04T07:49:29;27.50;93.00
25214;DHT22;13160;51.834;4.706;2022-08-04T07:52:17;27.50;92.80
25214;DHT22;13160;51.834;4.706;2022-08-04T07:54:46;27.40;92.90
25214;DHT22;13160;51.834;4.706;2022-08-04T07:57:16;27.40;93.30
25214;DHT22;13160;51.834;4.706;2022-08-04T08:00:07;27.50;92.90
25214;DHT22;13160;51.834;4.706;2022-08-04T08:02:39;27.50;92.80
25214;DHT22;13160;51.834;4.706;2022-08-04T08:05:10;27.60;92.70
25214;DHT22;13160;51.834;4.706;2022-08-04T08:07:44;27.80;92.60
25214;DHT22;13160;51.834;4.706;2022-08-04T08:10:17;28.00;91.90
25214;DHT22;13160;51.834;4.706;2022-08-04T08:12:46;27.90;91.60
25214;DHT22;13160;51.834;4.706;2022-08-04T08:15:19;27.90;91.70
25214;DHT22;13160;51.834;4.706;2022-08-04T08:17:50;27.80;91.40
25214;DHT22;13160;51.834;4.706;2022-08-04T08:20:27;27.80;91.70
25214;DHT22;13160;51.834;4.706;2022-08-04T08:22:57;27.80;91.70
25214;DHT22;13160;51.834;4.706;2022-08-04T08:25:26;27.80;91.00
25214;DHT22;13160;51.834;4.706;2022-08-04T08:27:57;27.80;90.90
25214;DHT22;13160;51.834;4.706;2022-08-04T08:30:26;27.70;90.80
25214;DHT22;13160;51.834;4.706;2022-08-04T08:33:03;27.70;90.80
25214;DHT22;13160;51.834;4.706;2022-08-04T08:35:41;27.70;90.20
25214;DHT22;13160;51.834;4.706;2022-08-04T08:38:33;27.70;90.00
25214;DHT22;13160;51.834;4.706;2022-08-04T08:51:19;27.80;87.90
25214;DHT22;13160;51.834;4.706;2022-08-04T08:54:13;27.80;87.20
25214;DHT22;13160;51.834;4.706;2022-08-04T08:56:58;27.90;86.20
25214;DHT22;13160;51.834;4.706;2022-08-04T08:59:52;28.00;85.20
25214;DHT22;13160;51.834;4.706;2022-08-04T09:03:03;28.20;83.90
25214;DHT22;13160;51.834;4.706;2022-08-04T09:09:29;28.60;84.00
25214;DHT22;13160;51.834;4.706;2022-08-04T09:12:08;28.70;81.40
25214;DHT22;13160;51.834;4.706;2022-08-04T09:14:44;28.80;80.60
25214;DHT22;13160;51.834;4.706;2022-08-04T09:17:21;28.80;79.90
25214;DHT22;13160;51.834;4.706;2022-08-04T09:19:55;28.80;79.30
25214;DHT22;13160;51.834;4.706;2022-08-04T09:22:35;28.90;78.20
25214;DHT22;13160;51.834;4.706;2022-08-04T09:25:10;29.00;78.10
25214;DHT22;13160;51.834;4.706;2022-08-04T09:27:45;28.90;77.50
25214;DHT22;13160;51.834;4.706;2022-08-04T09:30:19;28.90;77.10
25214;DHT22;13160;51.834;4.706;2022-08-04T09:32:57;28.80;77.10
25214;DHT22;13160;51.834;4.706;2022-08-04T09:35:41;28.70;76.80
25214;DHT22;13160;51.834;4.706;2022-08-04T09:38:22;28.70;76.70
25214;DHT22;13160;51.834;4.706;2022-08-04T09:41:01;28.60;76.70
25214;DHT22;13160;51.834;4.706;2022-08-04T09:44:13;28.60;76.50
25214;DHT22;13160;51.834;4.706;2022-08-04T09:47:15;28.50;77.10
25214;DHT22;13160;51.834;4.706;2022-08-04T09:49:52;28.40;77.20
25214;DHT22;13160;51.834;4.706;2022-08-04T09:52:37;28.30;77.20
25214;DHT22;13160;51.834;4.706;2022-08-04T09:55:18;28.30;77.50
25214;DHT22;13160;51.834;4.706;2022-08-04T09:57:56;28.30;77.70
25214;DHT22;13160;51.834;4.706;2022-08-04T10:00:35;28.10;77.70
25214;DHT22;13160;51.834;4.706;2022-08-04T10:03:10;28.00;77.90
25214;DHT22;13160;51.834;4.706;2022-08-04T10:05:56;28.00;78.50
25214;DHT22;13160;51.834;4.706;2022-08-04T10:08:50;27.90;78.50
25214;DHT22;13160;51.834;4.706;2022-08-04T10:11:36;27.90;79.00
25214;DHT22;13160;51.834;4.706;2022-08-04T10:14:36;27.80;78.90
25214;DHT22;13160;51.834;4.706;2022-08-04T10:17:25;27.80;79.00
25214;DHT22;13160;51.834;4.706;2022-08-04T10:20:06;27.70;79.40
25214;DHT22;13160;51.834;4.706;2022-08-04T10:22:40;27.70;79.10
25214;DHT22;13160;51.834;4.706;2022-08-04T10:25:40;27.70;79.00
25214;DHT22;13160;51.834;4.706;2022-08-04T10:28:37;27.80;78.60
25214;DHT22;13160;51.834;4.706;2022-08-04T10:31:15;27.80;78.60
25214;DHT22;13160;51.834;4.706;2022-08-04T10:33:50;27.80;78.30
25214;DHT22;13160;51.834;4.706;2022-08-04T10:36:25;27.90;78.20
25214;DHT22;13160;51.834;4.706;2022-08-04T10:39:00;27.90;78.50
25214;DHT22;13160;51.834;4.706;2022-08-04T10:41:45;28.00;78.10
25214;DHT22;13160;51.834;4.706;2022-08-04T10:44:26;28.10;77.40
25214;DHT22;13160;51.834;4.706;2022-08-04T10:47:15;28.20;77.00
25214;DHT22;13160;51.834;4.706;2022-08-04T10:49:52;28.20;76.60
25214;DHT22;13160;51.834;4.706;2022-08-04T10:52:28;28.20;76.40
25214;DHT22;13160;51.834;4.706;2022-08-04T10:55:05;28.30;76.20
25214;DHT22;13160;51.834;4.706;2022-08-04T10:57:40;28.50;75.90
25214;DHT22;13160;51.834;4.706;2022-08-04T11:00:14;28.60;75.10
25214;DHT22;13160;51.834;4.706;2022-08-04T11:02:52;28.70;74.90
25214;DHT22;13160;51.834;4.706;2022-08-04T11:05:28;28.80;74.60
25214;DHT22;13160;51.834;4.706;2022-08-04T11:08:00;28.90;73.70
25214;DHT22;13160;51.834;4.706;2022-08-04T11:10:42;29.00;73.70
25214;DHT22;13160;51.834;4.706;2022-08-04T11:13:16;29.10;73.70
25214;DHT22;13160;51.834;4.706;2022-08-04T11:15:59;29.10;73.70
25214;DHT22;13160;51.834;4.706;2022-08-04T11:18:37;29.10;74.10
25214;DHT22;13160;51.834;4.706;2022-08-04T11:21:13;29.20;74.10
25214;DHT22;13160;51.834;4.706;2022-08-04T11:23:52;29.20;74.00
25214;DHT22;13160;51.834;4.706;2022-08-04T11:26:28;29.20;73.90
25214;DHT22;13160;51.834;4.706;2022-08-04T11:29:14;29.30;73.50
25214;DHT22;13160;51.834;4.706;2022-08-04T11:31:48;29.30;73.50
25214;DHT22;13160;51.834;4.706;2022-08-04T11:34:19;29.30;73.40
25214;DHT22;13160;51.834;4.706;2022-08-04T11:36:55;29.20;73.50
25214;DHT22;13160;51.834;4.706;2022-08-04T11:39:29;29.20;73.80
25214;DHT22;13160;51.834;4.706;2022-08-04T11:42:06;29.20;73.70
25214;DHT22;13160;51.834;4.706;2022-08-04T11:44:45;29.20;73.80
25214;DHT22;13160;51.834;4.706;2022-08-04T11:47:24;29.20;73.70
25214;DHT22;13160;51.834;4.706;2022-08-04T11:50:03;29.30;73.80
25214;DHT22;13160;51.834;4.706;2022-08-04T11:52:38;29.30;73.40
25214;DHT22;13160;51.834;4.706;2022-08-04T11:55:12;29.30;73.40
25214;DHT22;13160;51.834;4.706;2022-08-04T11:57:42;29.40;73.20
25214;DHT22;13160;51.834;4.706;2022-08-04T12:00:21;29.40;72.90
25214;DHT22;13160;51.834;4.706;2022-08-04T12:03:10;29.50;73.00
25214;DHT22;13160;51.834;4.706;2022-08-04T12:05:51;29.60;72.10
25214;DHT22;13160;51.834;4.706;2022-08-04T12:08:32;29.60;72.10
25214;DHT22;13160;51.834;4.706;2022-08-04T12:11:15;29.60;71.50
25214;DHT22;13160;51.834;4.706;2022-08-04T12:14:03;29.70;71.50
25214;DHT22;13160;51.834;4.706;2022-08-04T12:16:47;29.70;70.90
25214;DHT22;13160;51.834;4.706;2022-08-04T12:19:25;29.90;70.90
25214;DHT22;13160;51.834;4.706;2022-08-04T12:22:22;29.90;70.30
25214;DHT22;13160;51.834;4.706;2022-08-04T12:25:02;30.00;70.70
25214;DHT22;13160;51.834;4.706;2022-08-04T12:27:35;30.10;70.30
25214;DHT22;13160;51.834;4.706;2022-08-04T12:30:08;30.20;70.20
25214;DHT22;13160;51.834;4.706;2022-08-04T12:33:03;30.20;69.70
25214;DHT22;13160;51.834;4.706;2022-08-04T12:35:39;30.20;69.50
25214;DHT22;13160;51.834;4.706;2022-08-04T12:38:32;30.20;69.10
25214;DHT22;13160;51.834;4.706;2022-08-04T12:41:01;30.20;68.80
25214;DHT22;13160;51.834;4.706;2022-08-04T12:43:37;30.20;68.40
25214;DHT22;13160;51.834;4.706;2022-08-04T12:46:09;30.30;68.40
25214;DHT22;13160;51.834;4.706;2022-08-04T12:48:39;30.30;68.30
25214;DHT22;13160;51.834;4.706;2022-08-04T12:51:14;30.40;67.20
25214;DHT22;13160;51.834;4.706;2022-08-04T12:54:03;30.40;67.00
25214;DHT22;13160;51.834;4.706;2022-08-04T12:56:32;30.40;67.20
25214;DHT22;13160;51.834;4.706;2022-08-04T12:59:03;30.50;67.30
25214;DHT22;13160;51.834;4.706;2022-08-04T13:01:39;30.60;66.80
25214;DHT22;13160;51.834;4.706;2022-08-04T13:04:35;30.70;66.30
25214;DHT22;13160;51.834;4.706;2022-08-04T13:07:21;30.80;65.40
25214;DHT22;13160;51.834;4.706;2022-08-04T13:09:51;30.90;65.40
25214;DHT22;13160;51.834;4.706;2022-08-04T13:12:21;30.90;65.10
25214;DHT22;13160;51.834;4.706;2022-08-04T13:15:07;30.90;65.10
25214;DHT22;13160;51.834;4.706;2022-08-04T13:17:49;30.90;64.60
25214;DHT22;13160;51.834;4.706;2022-08-04T13:20:26;30.80;64.30
25214;DHT22;13160;51.834;4.706;2022-08-04T13:23:03;30.80;64.60
25214;DHT22;13160;51.834;4.706;2022-08-04T13:25:36;30.80;64.00
25214;DHT22;13160;51.834;4.706;2022-08-04T13:28:30;30.70;63.50
25214;DHT22;13160;51.834;4.706;2022-08-04T13:31:03;30.70;63.70
25214;DHT22;13160;51.834;4.706;2022-08-04T13:33:36;30.70;63.60
25214;DHT22;13160;51.834;4.706;2022-08-04T13:36:07;30.70;63.20
25214;DHT22;13160;51.834;4.706;2022-08-04T13:38:39;30.70;64.30
25214;DHT22;13160;51.834;4.706;2022-08-04T13:41:16;30.80;63.00
25214;DHT22;13160;51.834;4.706;2022-08-04T13:43:47;30.80;62.80
25214;DHT22;13160;51.834;4.706;2022-08-04T13:46:40;30.80;62.30
25214;DHT22;13160;51.834;4.706;2022-08-04T13:49:17;30.80;61.80
25214;DHT22;13160;51.834;4.706;2022-08-04T13:52:07;30.80;61.80
25214;DHT22;13160;51.834;4.706;2022-08-04T13:54:42;30.90;61.80
25214;DHT22;13160;51.834;4.706;2022-08-04T13:57:16;30.90;61.60
25214;DHT22;13160;51.834;4.706;2022-08-04T13:59:51;30.90;61.70
25214;DHT22;13160;51.834;4.706;2022-08-04T14:02:29;30.70;61.90
25214;DHT22;13160;51.834;4.706;2022-08-04T14:05:16;30.60;61.80
25214;DHT22;13160;51.834;4.706;2022-08-04T14:07:55;30.50;62.20
25214;DHT22;13160;51.834;4.706;2022-08-04T14:10:27;30.40;62.60
25214;DHT22;13160;51.834;4.706;2022-08-04T14:12:56;30.30;63.20
25214;DHT22;13160;51.834;4.706;2022-08-04T14:15:38;30.10;63.40
25214;DHT22;13160;51.834;4.706;2022-08-04T14:18:28;30.10;63.90
25214;DHT22;13160;51.834;4.706;2022-08-04T14:21:05;30.00;64.90
25214;DHT22;13160;51.834;4.706;2022-08-04T14:23:41;30.00;65.10
25214;DHT22;13160;51.834;4.706;2022-08-04T14:26:23;30.00;64.90
25214;DHT22;13160;51.834;4.706;2022-08-04T14:29:07;30.00;65.20
25214;DHT22;13160;51.834;4.706;2022-08-04T14:32:05;29.90;65.70
25214;DHT22;13160;51.834;4.706;2022-08-04T14:34:41;30.00;64.80
25214;DHT22;13160;51.834;4.706;2022-08-04T14:37:13;30.00;64.60
25214;DHT22;13160;51.834;4.706;2022-08-04T14:39:48;30.10;64.70
25214;DHT22;13160;51.834;4.706;2022-08-04T14:42:41;30.10;64.30
25214;DHT22;13160;51.834;4.706;2022-08-04T14:45:29;30.10;64.10
25214;DHT22;13160;51.834;4.706;2022-08-04T14:47:59;30.00;64.20
25214;DHT22;13160;51.834;4.706;2022-08-04T14:50:37;29.90;64.20
25214;DHT22;13160;51.834;4.706;2022-08-04T14:53:07;29.80;64.40
25214;DHT22;13160;51.834;4.706;2022-08-04T14:55:38;29.70;64.90
25214;DHT22;13160;51.834;4.706;2022-08-04T14:58:17;29.60;65.30
25214;DHT22;13160;51.834;4.706;2022-08-04T15:01:06;29.40;65.60
25214;DHT22;13160;51.834;4.706;2022-08-04T15:03:40;29.20;65.40
25214;DHT22;13160;51.834;4.706;2022-08-04T15:06:20;29.10;65.80
25214;DHT22;13160;51.834;4.706;2022-08-04T15:08:53;29.00;66.10
25214;DHT22;13160;51.834;4.706;2022-08-04T15:11:23;28.90;66.50
25214;DHT22;13160;51.834;4.706;2022-08-04T15:13:54;28.70;66.80
25214;DHT22;13160;51.834;4.706;2022-08-04T15:16:24;28.60;66.60
25214;DHT22;13160;51.834;4.706;2022-08-04T15:18:54;28.50;66.90
25214;DHT22;13160;51.834;4.706;2022-08-04T15:21:27;28.40;66.80
25214;DHT22;13160;51.834;4.706;2022-08-04T15:23:57;28.30;66.90
25214;DHT22;13160;51.834;4.706;2022-08-04T15:26:31;28.20;67.20
25214;DHT22;13160;51.834;4.706;2022-08-04T15:29:07;28.10;67.20
25214;DHT22;13160;51.834;4.706;2022-08-04T15:31:43;28.00;67.30
25214;DHT22;13160;51.834;4.706;2022-08-04T15:34:46;28.00;67.60
25214;DHT22;13160;51.834;4.706;2022-08-04T15:37:17;27.90;67.20
25214;DHT22;13160;51.834;4.706;2022-08-04T15:39:57;27.90;67.40
25214;DHT22;13160;51.834;4.706;2022-08-04T15:42:31;27.90;67.20
25214;DHT22;13160;51.834;4.706;2022-08-04T15:45:20;27.80;67.20
25214;DHT22;13160;51.834;4.706;2022-08-04T15:48:30;27.80;67.50
25214;DHT22;13160;51.834;4.706;2022-08-04T15:51:04;27.80;67.70
25214;DHT22;13160;51.834;4.706;2022-08-04T15:56:55;27.70;68.10
25214;DHT22;13160;51.834;4.706;2022-08-04T15:59:57;27.70;68.30
25214;DHT22;13160;51.834;4.706;2022-08-04T16:02:40;27.80;67.80
25214;DHT22;13160;51.834;4.706;2022-08-04T16:05:32;27.70;68.00
25214;DHT22;13160;51.834;4.706;2022-08-04T16:08:13;27.70;68.10
25214;DHT22;13160;51.834;4.706;2022-08-04T16:10:47;27.60;68.90
25214;DHT22;13160;51.834;4.706;2022-08-04T16:13:18;27.60;68.70
25214;DHT22;13160;51.834;4.706;2022-08-04T16:15:53;27.60;69.20
25214;DHT22;13160;51.834;4.706;2022-08-04T16:18:40;27.60;69.00
25214;DHT22;13160;51.834;4.706;2022-08-04T16:21:21;27.50;68.60
25214;DHT22;13160;51.834;4.706;2022-08-04T16:24:05;27.50;68.80
25214;DHT22;13160;51.834;4.706;2022-08-04T16:26:48;27.50;69.00
25214;DHT22;13160;51.834;4.706;2022-08-04T16:29:35;27.50;69.00
25214;DHT22;13160;51.834;4.706;2022-08-04T16:32:18;27.40;69.10
25214;DHT22;13160;51.834;4.706;2022-08-04T16:34:54;27.30;69.10
25214;DHT22;13160;51.834;4.706;2022-08-04T16:37:32;27.30;69.10
25214;DHT22;13160;51.834;4.706;2022-08-04T16:40:30;27.20;69.00
25214;DHT22;13160;51.834;4.706;2022-08-04T16:43:06;27.10;68.50
25214;DHT22;13160;51.834;4.706;2022-08-04T16:45:43;27.10;69.10
25214;DHT22;13160;51.834;4.706;2022-08-04T16:48:17;27.00;69.30
25214;DHT22;13160;51.834;4.706;2022-08-04T16:50:50;26.90;68.90
25214;DHT22;13160;51.834;4.706;2022-08-04T16:53:22;26.90;69.60
25214;DHT22;13160;51.834;4.706;2022-08-04T16:56:13;26.90;69.70
25214;DHT22;13160;51.834;4.706;2022-08-04T16:58:44;26.80;69.00
25214;DHT22;13160;51.834;4.706;2022-08-04T17:01:20;26.70;68.90
25214;DHT22;13160;51.834;4.706;2022-08-04T17:04:01;26.60;69.00
25214;DHT22;13160;51.834;4.706;2022-08-04T17:06:35;26.60;69.20
25214;DHT22;13160;51.834;4.706;2022-08-04T17:09:06;26.50;69.30
25214;DHT22;13160;51.834;4.706;2022-08-04T17:11:37;26.50;69.80
25214;DHT22;13160;51.834;4.706;2022-08-04T17:14:05;26.40;69.20
25214;DHT22;13160;51.834;4.706;2022-08-04T17:16:37;26.30;69.40
25214;DHT22;13160;51.834;4.706;2022-08-04T17:19:09;26.30;68.90
25214;DHT22;13160;51.834;4.706;2022-08-04T17:21:54;26.20;68.60
25214;DHT22;13160;51.834;4.706;2022-08-04T17:24:32;26.10;68.90
25214;DHT22;13160;51.834;4.706;2022-08-04T17:27:01;26.00;68.80
25214;DHT22;13160;51.834;4.706;2022-08-04T17:29:49;25.90;69.10
25214;DHT22;13160;51.834;4.706;2022-08-04T17:32:19;25.70;69.80
25214;DHT22;13160;51.834;4.706;2022-08-04T17:34:49;25.60;70.10
25214;DHT22;13160;51.834;4.706;2022-08-04T17:37:21;25.50;70.70
25214;DHT22;13160;51.834;4.706;2022-08-04T17:40:13;25.50;71.40
25214;DHT22;13160;51.834;4.706;2022-08-04T17:43:00;25.30;72.00